Airfield :







YOU CAN JOIN US ON...

 
LOGIN :

Register | Disclaimer

   EN    FR    IT 

 









Legend :    VFR   Marginal VFR   IFR   Intensive IFR   Very Intensive IFR
Visi :
Ceiling :
>= 8 km
>= 3000ft
5 to 8 km
1000 to 3000 ft
1500m to 5 km
500 to 1000 ft
800 to 1500m
200 to 500 ft
< 800m
< 200 ft
Symbols :   Thunderstorms  Fog  Heavy snow  Heavy precipitations  Wind > 20 kt






- Airport Elevation : 199 ft
- IATA code : YRQ


CYRQ - Trois-Rivières

CURRENT METAR :
  • 250800Z AUTO 18006KT 9SM CLR 16/10 A3019 RMK SLP226

EXPIRED METARs :
  • 250700Z AUTO 20004KT 180V240 9SM CLR 17/11 A3019 RMK SLP226 DENSITY ALT 200FT
  • 250600Z AUTO 18006KT 9SM CLR 18/11 A3019 RMK SLP226 DENSITY ALT 300FT

TAF TAF CYRQ
Valid from the 25 at 08:00 until the 25 at 20:00 UTC


250738Z 2508/2520 19008KT P6SM FEW120
BECMG 2511/2513 20010G20KT BKN060 OVC120
FM251600 20008G18KT P6SM BKN060 OVC120 RMK FCST BASED ON AUTO OBS. NXT FCST BY 251400Z
CZUL FIR / North America



MET'MAP, your aeronautical weather chart ! - Copyright ORBIFLY December 2007 - Disclaimer

ORBIFLY MET'MAP TEAM :

Programming & Development : Alexandra Zaïnal
Concept & original design : Baudouin d'Aumeries
Assistance for programming : Marc-Olivier Méhu
Technical & hardware support : Manuel Goepfert

Contact : metmap@orbifly.com




SOURCES & CREDITS :

   NOAA